Time;durP1;ratioP1;P1;durP2;ratioP2;P2;SDS_P1;SDS_P2;PMS_P1;PMS_P2;Temp;Humidity;BMP_temperature;BMP_pressure;BME280_temperature;BME280_humidity;BME280_pressure;Samples;Min_cycle;Max_cycle;Signal;HPM_P1;HPM_P2
2022/04/28 00:00:48;;;;;;;7.43;4.57;;;10.00;99.90;;;;;;5054758;28;20196;-47
2022/04/28 00:03:14;;;;;;;5.28;4.10;;;10.00;99.90;;;;;;5054427;28;20263;-47
2022/04/28 00:05:40;;;;;;;6.47;4.10;;;10.00;99.90;;;;;;5054943;28;20215;-51
2022/04/28 00:08:07;;;;;;;10.10;4.85;;;10.00;99.90;;;;;;5054693;28;20506;-52
2022/04/28 00:10:33;;;;;;;8.80;4.43;;;10.00;99.90;;;;;;5054885;28;20163;-49
2022/04/28 00:13:00;;;;;;;9.95;5.05;;;10.00;99.90;;;;;;5054666;28;20292;-46
2022/04/28 00:15:27;;;;;;;13.35;5.18;;;10.00;99.90;;;;;;5054842;28;20169;-50
2022/04/28 00:17:53;;;;;;;7.40;5.18;;;10.00;99.90;;;;;;5055035;28;20206;-51
2022/04/28 00:20:18;;;;;;;11.30;5.25;;;10.00;99.90;;;;;;5054672;28;20209;-52
2022/04/28 00:22:44;;;;;;;10.77;4.55;;;10.00;99.90;;;;;;5054409;28;20182;-52
2022/04/28 00:25:09;;;;;;;11.00;4.57;;;10.00;99.90;;;;;;5054660;28;20163;-46
2022/04/28 00:27:35;;;;;;;12.43;5.10;;;9.90;99.90;;;;;;5054482;28;20198;-52
2022/04/28 00:30:01;;;;;;;8.68;4.75;;;9.90;99.90;;;;;;5054233;28;20163;-48
2022/04/28 00:32:26;;;;;;;10.00;4.90;;;9.80;99.90;;;;;;5054468;28;20173;-48
2022/04/28 00:34:52;;;;;;;9.75;4.85;;;9.70;99.90;;;;;;5054526;28;20577;-49
2022/04/28 00:37:18;;;;;;;8.93;5.57;;;9.70;99.90;;;;;;5054279;28;20218;-51
2022/04/28 00:39:44;;;;;;;8.02;4.90;;;9.60;99.90;;;;;;5054335;28;20220;-48
2022/04/28 00:42:12;;;;;;;9.95;4.97;;;9.60;99.90;;;;;;5054255;28;20170;-48
2022/04/28 00:44:38;;;;;;;9.13;5.15;;;9.50;99.90;;;;;;5054069;28;20188;-50
2022/04/28 00:47:05;;;;;;;9.73;5.30;;;9.50;99.90;;;;;;5054142;28;20195;-51
2022/04/28 00:52:16;;;;;;;8.68;5.22;;;9.50;99.90;;;;;;5053834;28;20174;-50
2022/04/28 00:54:44;;;;;;;8.30;5.15;;;9.50;99.90;;;;;;5053810;28;20163;-52
2022/04/28 00:57:10;;;;;;;5.60;4.68;;;9.50;99.90;;;;;;5053679;28;20288;-52
2022/04/28 00:59:38;;;;;;;7.45;5.47;;;9.40;99.90;;;;;;5069141;28;20225;-51
2022/04/28 01:02:04;;;;;;;8.90;5.18;;;9.40;99.90;;;;;;5053744;28;20253;-50
2022/04/28 01:04:30;;;;;;;7.55;5.70;;;9.50;99.90;;;;;;5053545;28;20178;-51
2022/04/28 01:06:56;;;;;;;10.98;5.63;;;9.40;99.90;;;;;;5053332;28;20167;-49
2022/04/28 01:09:21;;;;;;;11.25;5.50;;;9.40;99.90;;;;;;5053806;28;20166;-50
2022/04/28 01:11:48;;;;;;;9.80;5.10;;;9.40;99.90;;;;;;5053371;28;20198;-50
2022/04/28 01:14:13;;;;;;;8.60;4.80;;;9.30;99.90;;;;;;5053686;28;20170;-50
2022/04/28 01:16:39;;;;;;;9.25;5.25;;;9.30;99.90;;;;;;5053259;28;20214;-48
2022/04/28 01:19:04;;;;;;;9.02;5.80;;;9.30;99.90;;;;;;5053190;28;20212;-47
2022/04/28 01:21:30;;;;;;;10.32;6.20;;;9.30;99.90;;;;;;5053547;28;20186;-52
2022/04/28 01:23:56;;;;;;;8.93;5.55;;;9.20;99.90;;;;;;5053490;28;20167;-50
2022/04/28 01:26:23;;;;;;;7.50;4.97;;;9.20;99.90;;;;;;5053437;28;20174;-52
2022/04/28 01:28:49;;;;;;;11.25;6.18;;;9.10;99.90;;;;;;5053340;28;20170;-52
2022/04/28 01:31:14;;;;;;;8.77;5.07;;;9.20;99.90;;;;;;5053079;28;20577;-52
2022/04/28 01:33:40;;;;;;;14.13;6.47;;;9.10;99.90;;;;;;5053278;28;20166;-50
2022/04/28 01:36:06;;;;;;;10.23;6.05;;;9.10;99.90;;;;;;5052904;28;20194;-51
2022/04/28 01:38:32;;;;;;;11.88;5.97;;;9.10;99.90;;;;;;5052900;28;20721;-50
2022/04/28 01:40:58;;;;;;;6.90;5.93;;;9.00;99.90;;;;;;5053012;28;20178;-48
2022/04/28 01:43:23;;;;;;;7.85;5.72;;;9.00;99.90;;;;;;5053098;28;20174;-50
2022/04/28 01:45:49;;;;;;;10.05;5.88;;;9.00;99.90;;;;;;5052796;28;20186;-51
2022/04/28 01:48:15;;;;;;;14.70;6.53;;;9.00;99.90;;;;;;5052733;28;20170;-50
2022/04/28 01:50:40;;;;;;;11.77;6.07;;;8.90;99.90;;;;;;5052742;28;20186;-52
2022/04/28 01:55:52;;;;;;;10.48;5.97;;;8.90;99.90;;;;;;5052733;28;20188;-52
2022/04/28 01:58:18;;;;;;;12.32;6.60;;;8.80;99.90;;;;;;5052855;28;20190;-52
2022/04/28 02:00:43;;;;;;;9.48;5.90;;;8.80;99.90;;;;;;5052612;28;20167;-51
2022/04/28 02:03:09;;;;;;;8.13;5.78;;;8.80;99.90;;;;;;5052491;28;20587;-50
2022/04/28 02:05:35;;;;;;;8.48;5.95;;;8.80;99.90;;;;;;5052738;28;20640;-52
2022/04/28 02:08:01;;;;;;;13.13;6.72;;;8.70;99.90;;;;;;5052431;28;20167;-47
2022/04/28 02:10:26;;;;;;;16.67;6.03;;;8.60;99.90;;;;;;5052859;28;20684;-44
2022/04/28 02:12:52;;;;;;;11.48;6.28;;;8.70;99.90;;;;;;5052848;28;20645;-47
2022/04/28 02:15:18;;;;;;;9.35;6.07;;;8.70;99.90;;;;;;5052295;28;20682;-47
2022/04/28 02:17:43;;;;;;;10.35;6.88;;;8.70;99.90;;;;;;5051947;28;20297;-51
2022/04/28 02:20:11;;;;;;;9.82;6.15;;;8.70;99.90;;;;;;5052196;28;20285;-48
2022/04/28 02:22:36;;;;;;;13.52;7.15;;;8.70;99.90;;;;;;5052207;28;20563;-49
2022/04/28 02:25:03;;;;;;;10.88;6.65;;;8.70;99.90;;;;;;5052248;28;20249;-44
2022/04/28 02:27:29;;;;;;;11.15;7.22;;;8.60;99.90;;;;;;5052108;28;20174;-45
2022/04/28 02:29:55;;;;;;;11.43;6.22;;;8.70;99.90;;;;;;5052405;28;20167;-45
2022/04/28 02:32:21;;;;;;;12.20;6.30;;;8.60;99.90;;;;;;5052062;28;20173;-44
2022/04/28 02:34:46;;;;;;;12.27;6.70;;;8.60;99.90;;;;;;5051999;28;20171;-44
2022/04/28 02:37:13;;;;;;;9.63;6.22;;;8.60;99.90;;;;;;5052025;28;20216;-44
2022/04/28 02:39:39;;;;;;;12.82;7.57;;;8.50;99.90;;;;;;5052196;28;20182;-44
2022/04/28 02:42:05;;;;;;;9.73;6.68;;;8.50;99.90;;;;;;5052008;28;20167;-44
2022/04/28 02:44:30;;;;;;;16.30;7.72;;;8.50;99.90;;;;;;5051981;28;20173;-44
2022/04/28 02:46:56;;;;;;;11.43;7.05;;;8.50;99.90;;;;;;5052031;28;20175;-44
2022/04/28 02:49:21;;;;;;;12.23;7.55;;;8.40;99.90;;;;;;5052176;28;20170;-44
2022/04/28 02:51:47;;;;;;;11.00;7.22;;;8.40;99.90;;;;;;5051912;28;20167;-47
2022/04/28 02:54:12;;;;;;;10.05;7.53;;;8.40;99.90;;;;;;5051902;28;20167;-47
2022/04/28 02:56:38;;;;;;;14.15;8.05;;;8.40;99.90;;;;;;5051759;28;20679;-44
2022/04/28 02:59:05;;;;;;;11.98;7.45;;;8.40;99.90;;;;;;5051903;28;20170;-46
2022/04/28 03:01:30;;;;;;;12.50;6.85;;;8.40;99.90;;;;;;5051825;28;20324;-48
2022/04/28 03:03:55;;;;;;;16.10;8.02;;;8.30;99.90;;;;;;5052066;28;20695;-46
2022/04/28 03:11:52;;;;;;;13.63;7.55;;;8.30;99.90;;;;;;5052260;28;20274;-45
2022/04/28 03:14:19;;;;;;;10.75;7.22;;;8.30;99.90;;;;;;5051718;28;20185;-49
2022/04/28 03:16:44;;;;;;;14.43;7.93;;;8.30;99.90;;;;;;5051593;28;20202;-52
2022/04/28 03:19:10;;;;;;;12.35;7.95;;;8.20;99.90;;;;;;5051706;28;20178;-50
2022/04/28 03:21:37;;;;;;;11.90;7.60;;;8.20;99.90;;;;;;5051600;28;20171;-52
2022/04/28 03:24:03;;;;;;;11.85;7.70;;;8.20;99.90;;;;;;5051793;28;20170;-45
2022/04/28 03:26:29;;;;;;;12.07;8.00;;;8.30;99.90;;;;;;5051485;28;20167;-45
2022/04/28 03:28:55;;;;;;;16.23;8.40;;;8.20;99.90;;;;;;5052839;28;20533;-45
2022/04/28 03:31:21;;;;;;;14.18;8.20;;;8.20;99.90;;;;;;5055395;28;20245;-44
2022/04/28 03:33:47;;;;;;;10.70;8.23;;;8.30;99.90;;;;;;5055545;28;20301;-46
2022/04/28 03:38:56;;;;;;;11.25;7.80;;;8.20;99.90;;;;;;5055476;28;20269;-47
2022/04/28 03:41:22;;;;;;;11.30;8.23;;;8.20;99.90;;;;;;5055499;28;20171;-51
2022/04/28 03:43:48;;;;;;;13.85;8.02;;;8.20;99.90;;;;;;5055050;28;20568;-49
2022/04/28 03:46:15;;;;;;;23.17;8.57;;;8.30;99.90;;;;;;5055118;28;20258;-48
2022/04/28 03:48:41;;;;;;;12.23;8.23;;;8.30;99.90;;;;;;5055260;28;20174;-49
2022/04/28 03:51:06;;;;;;;13.57;8.20;;;8.10;99.90;;;;;;5055032;28;20257;-51
2022/04/28 03:53:32;;;;;;;15.93;9.60;;;8.10;99.90;;;;;;5055243;28;20241;-47
2022/04/28 03:55:58;;;;;;;16.20;8.43;;;8.20;99.90;;;;;;5055041;28;20190;-51
2022/04/28 03:58:25;;;;;;;11.35;7.63;;;8.20;99.90;;;;;;5055284;28;20192;-48
2022/04/28 04:00:51;;;;;;;12.57;8.38;;;8.20;99.90;;;;;;5055024;28;20177;-46
2022/04/28 04:03:19;;;;;;;12.40;8.68;;;8.20;99.90;;;;;;5053227;28;20589;-49
2022/04/28 04:05:45;;;;;;;15.25;8.75;;;8.10;99.90;;;;;;5055046;28;20171;-45
2022/04/28 04:08:10;;;;;;;15.00;9.07;;;8.10;99.90;;;;;;5054718;28;20280;-46
2022/04/28 04:10:36;;;;;;;23.90;10.05;;;8.10;99.90;;;;;;5054922;28;20174;-45
2022/04/28 04:13:02;;;;;;;15.60;8.82;;;8.00;99.90;;;;;;5054853;28;20213;-49
2022/04/28 04:15:27;;;;;;;14.00;8.10;;;8.00;99.90;;;;;;5054529;28;20163;-46
2022/04/28 04:17:53;;;;;;;12.55;9.15;;;8.00;99.90;;;;;;5054692;28;20203;-44
2022/04/28 04:20:18;;;;;;;14.10;10.18;;;8.00;99.90;;;;;;5054441;28;20203;-45
2022/04/28 04:22:44;;;;;;;12.90;9.27;;;8.00;99.90;;;;;;5054675;28;20181;-47
2022/04/28 04:25:10;;;;;;;13.52;8.80;;;7.90;99.90;;;;;;5054670;28;20171;-44
2022/04/28 04:27:36;;;;;;;16.35;10.05;;;7.90;99.90;;;;;;5054279;28;20171;-46
2022/04/28 04:32:17;;;;;;;23.10;10.05;;;7.90;99.90;;;;;;5054546;28;20204;-47
2022/04/28 04:32:48;;;;;;;17.65;9.90;;;8.00;99.90;;;;;;5053988;28;20222;-45
2022/04/28 04:35:14;;;;;;;19.60;9.80;;;7.90;99.90;;;;;;5054351;28;20177;-46
2022/04/28 04:37:40;;;;;;;16.13;9.88;;;8.00;99.90;;;;;;5054346;28;20215;-44
2022/04/28 04:40:07;;;;;;;17.88;10.57;;;8.00;99.90;;;;;;5054185;28;20170;-47
2022/04/28 04:42:32;;;;;;;17.85;10.15;;;8.00;99.90;;;;;;5054081;28;20171;-50
2022/04/28 04:44:58;;;;;;;22.08;9.95;;;8.00;99.90;;;;;;5053766;28;20174;-49
2022/04/28 04:47:23;;;;;;;16.88;9.70;;;8.00;99.90;;;;;;5054277;28;20212;-47
2022/04/28 04:49:49;;;;;;;15.50;10.20;;;8.00;99.90;;;;;;5053967;28;20174;-47
2022/04/28 04:52:14;;;;;;;23.77;10.65;;;8.00;99.90;;;;;;5053821;28;20198;-49
2022/04/28 04:54:40;;;;;;;16.38;9.45;;;8.10;99.90;;;;;;5052877;28;20262;-45
2022/04/28 04:57:05;;;;;;;14.00;9.50;;;8.10;99.90;;;;;;5053737;28;20202;-48
2022/04/28 04:59:31;;;;;;;17.00;10.10;;;8.10;99.90;;;;;;5053660;28;20159;-46
2022/04/28 05:01:56;;;;;;;19.33;10.32;;;8.20;99.90;;;;;;5053612;28;20242;-50
2022/04/28 05:04:22;;;;;;;14.63;9.10;;;8.30;99.90;;;;;;5053735;28;20666;-47
2022/04/28 05:06:47;;;;;;;21.52;9.68;;;8.30;99.90;;;;;;5053470;28;20228;-45
2022/04/28 05:09:13;;;;;;;15.93;10.40;;;8.30;99.90;;;;;;5053369;28;20159;-44
2022/04/28 05:11:39;;;;;;;19.52;10.68;;;8.40;99.90;;;;;;5053371;28;20662;-52
2022/04/28 05:14:04;;;;;;;16.70;10.98;;;8.50;99.90;;;;;;5053285;28;20590;-47
2022/04/28 05:16:30;;;;;;;12.82;9.18;;;8.60;99.90;;;;;;5053116;28;20202;-47
2022/04/28 05:18:55;;;;;;;17.25;11.15;;;8.60;99.90;;;;;;5053599;28;20253;-47
2022/04/28 05:21:21;;;;;;;17.00;10.10;;;8.60;99.90;;;;;;5053877;28;20158;-45
2022/04/28 05:23:46;;;;;;;17.88;10.55;;;8.70;99.90;;;;;;5053165;28;20163;-47
2022/04/28 05:26:13;;;;;;;16.15;10.02;;;8.70;99.90;;;;;;5053266;28;20171;-46
2022/04/28 05:28:38;;;;;;;17.27;10.30;;;8.70;99.90;;;;;;5053432;28;20181;-44
2022/04/28 05:31:04;;;;;;;18.80;10.30;;;8.60;99.90;;;;;;5053262;28;20163;-45
2022/04/28 05:33:29;;;;;;;15.15;10.27;;;8.70;99.90;;;;;;5053088;28;20205;-44
2022/04/28 05:35:55;;;;;;;17.70;10.55;;;8.80;99.90;;;;;;5068629;28;20703;-44
2022/04/28 05:38:21;;;;;;;16.08;9.82;;;9.00;99.90;;;;;;5052953;28;20237;-44
2022/04/28 05:40:47;;;;;;;18.67;10.85;;;9.00;99.90;;;;;;5053146;28;20171;-44
2022/04/28 05:45:57;;;;;;;16.08;10.30;;;9.10;99.90;;;;;;5052644;28;20197;-45
2022/04/28 05:48:23;;;;;;;16.67;9.98;;;9.20;99.90;;;;;;5053027;28;20170;-44
2022/04/28 05:50:48;;;;;;;18.52;11.80;;;9.20;99.90;;;;;;5052986;28;20200;-44
2022/04/28 05:53:14;;;;;;;15.75;10.02;;;9.30;99.90;;;;;;5052181;28;20483;-46
2022/04/28 05:55:41;;;;;;;23.15;11.75;;;9.40;99.90;;;;;;5052735;28;20185;-44
2022/04/28 05:58:07;;;;;;;18.45;11.45;;;9.40;99.90;;;;;;5052675;28;20182;-49
2022/04/28 06:00:34;;;;;;;17.80;10.45;;;9.50;99.90;;;;;;5052639;28;20166;-46
2022/04/28 06:03:00;;;;;;;16.85;11.85;;;9.60;99.90;;;;;;5052436;28;20571;-44
2022/04/28 06:05:26;;;;;;;16.00;11.02;;;9.60;99.90;;;;;;5052820;28;20258;-44
2022/04/28 06:07:52;;;;;;;20.90;11.52;;;9.60;99.90;;;;;;5052807;28;20220;-44
2022/04/28 06:10:18;;;;;;;20.45;12.05;;;9.70;99.90;;;;;;5052507;28;20162;-44
2022/04/28 06:12:43;;;;;;;18.48;11.52;;;9.80;99.90;;;;;;5052294;28;20334;-44
2022/04/28 06:15:10;;;;;;;22.98;11.40;;;9.80;99.90;;;;;;5052363;28;20212;-44
2022/04/28 06:17:35;;;;;;;16.48;11.02;;;9.90;99.90;;;;;;5052302;28;20234;-44
2022/04/28 06:20:01;;;;;;;19.63;12.55;;;10.00;99.90;;;;;;5052166;28;20625;-44
2022/04/28 06:22:26;;;;;;;21.92;11.50;;;10.00;99.90;;;;;;5052183;28;20257;-45
2022/04/28 06:24:53;;;;;;;17.70;11.60;;;10.10;99.90;;;;;;5052431;28;20166;-43
2022/04/28 06:27:20;;;;;;;17.65;11.52;;;10.10;99.90;;;;;;5052349;28;20166;-46
2022/04/28 06:29:46;;;;;;;17.20;12.20;;;10.30;99.90;;;;;;5052400;28;20170;-46
2022/04/28 06:32:11;;;;;;;14.95;11.85;;;10.30;99.90;;;;;;5065658;28;20176;-45
2022/04/28 06:34:37;;;;;;;19.75;12.23;;;10.20;99.90;;;;;;5070584;28;20248;-45
2022/04/28 06:37:05;;;;;;;20.20;12.73;;;10.30;99.90;;;;;;5070676;28;20218;-50
2022/04/28 06:39:31;;;;;;;19.13;12.98;;;10.30;99.90;;;;;;5070893;28;20254;-50
2022/04/28 06:41:56;;;;;;;23.17;13.18;;;10.40;99.90;;;;;;5070684;28;20250;-48
2022/04/28 06:44:22;;;;;;;20.20;12.65;;;10.60;99.90;;;;;;5071153;28;20172;-54
2022/04/28 06:46:47;;;;;;;20.38;13.05;;;10.60;99.90;;;;;;5070851;28;20174;-54
2022/04/28 06:49:13;;;;;;;20.25;12.27;;;10.70;99.90;;;;;;5070622;28;20211;-46
2022/04/28 06:51:40;;;;;;;22.02;12.18;;;10.80;99.90;;;;;;5070702;28;20188;-46
2022/04/28 06:54:05;;;;;;;15.85;12.23;;;10.80;99.90;;;;;;5070508;28;20166;-47
2022/04/28 06:56:31;;;;;;;19.08;13.10;;;10.90;99.90;;;;;;5070724;28;20639;-47
2022/04/28 06:58:57;;;;;;;26.08;12.75;;;11.00;99.90;;;;;;5070789;28;20180;-44
2022/04/28 07:01:22;;;;;;;21.45;13.45;;;11.10;99.90;;;;;;5070426;28;20180;-44
2022/04/28 07:03:48;;;;;;;21.00;12.85;;;11.20;99.90;;;;;;5071358;28;20178;-47
2022/04/28 07:06:13;;;;;;;20.40;13.45;;;11.30;99.90;;;;;;5074584;28;20623;-47
2022/04/28 07:08:39;;;;;;;22.63;13.82;;;11.20;99.90;;;;;;5074452;28;20198;-46
2022/04/28 07:11:04;;;;;;;22.23;12.93;;;11.40;99.90;;;;;;5074476;28;20244;-45
2022/04/28 07:13:30;;;;;;;20.30;13.40;;;11.50;99.90;;;;;;5074575;28;20174;-45
2022/04/28 07:15:56;;;;;;;15.80;13.15;;;11.40;99.90;;;;;;5074856;28;20714;-46
2022/04/28 07:18:22;;;;;;;21.10;14.13;;;11.80;99.90;;;;;;5074575;28;20173;-45
2022/04/28 07:20:47;;;;;;;21.73;15.25;;;11.80;99.90;;;;;;5074508;28;20245;-46
2022/04/28 07:23:15;;;;;;;20.02;13.38;;;11.90;99.90;;;;;;5074218;28;20193;-46
2022/04/28 07:25:41;;;;;;;26.75;14.48;;;11.80;99.90;;;;;;5072877;28;20584;-50
2022/04/28 07:28:07;;;;;;;20.38;13.50;;;11.90;99.90;;;;;;5074121;28;20631;-48
2022/04/28 07:30:32;;;;;;;25.23;14.43;;;11.90;99.90;;;;;;5074224;28;20169;-48
2022/04/28 07:32:58;;;;;;;22.88;13.93;;;12.30;99.90;;;;;;5073956;28;20629;-43
2022/04/28 07:35:24;;;;;;;19.13;12.38;;;12.20;99.90;;;;;;5074099;28;20181;-44
2022/04/28 07:37:50;;;;;;;22.90;14.23;;;12.20;99.90;;;;;;5074113;28;20206;-44
2022/04/28 07:40:17;;;;;;;21.23;14.77;;;12.30;99.90;;;;;;5073962;28;20166;-44
2022/04/28 07:42:43;;;;;;;19.48;14.75;;;12.60;99.90;;;;;;5073782;28;20665;-47
2022/04/28 07:45:10;;;;;;;20.75;14.80;;;12.50;99.90;;;;;;5073953;28;20174;-45
2022/04/28 07:47:35;;;;;;;19.55;14.00;;;12.70;99.90;;;;;;5073862;28;20178;-44
2022/04/28 07:50:01;;;;;;;20.92;14.93;;;12.80;99.90;;;;;;5073709;28;20220;-44
2022/04/28 07:52:26;;;;;;;19.77;14.13;;;12.90;99.90;;;;;;5073596;28;20177;-43
2022/04/28 07:54:52;;;;;;;19.05;13.70;;;13.00;99.90;;;;;;5073895;28;20177;-44
2022/04/28 07:57:18;;;;;;;21.88;15.98;;;13.00;99.90;;;;;;5073576;28;20209;-44
2022/04/28 07:59:44;;;;;;;21.25;15.45;;;13.10;99.90;;;;;;5073733;28;20181;-45
2022/04/28 08:02:11;;;;;;;18.77;14.48;;;13.20;99.90;;;;;;5073507;28;20210;-44
2022/04/28 08:04:38;;;;;;;20.42;15.10;;;13.30;99.90;;;;;;5073635;28;20180;-44
2022/04/28 08:07:03;;;;;;;21.25;14.52;;;13.40;99.90;;;;;;5073676;28;20185;-44
2022/04/28 08:09:30;;;;;;;25.05;16.58;;;13.50;99.90;;;;;;5073259;28;20162;-44
2022/04/28 08:11:56;;;;;;;20.17;15.20;;;13.60;99.90;;;;;;5073568;28;20226;-44
2022/04/28 08:14:24;;;;;;;22.52;15.95;;;13.70;99.90;;;;;;5072966;28;20170;-44
2022/04/28 08:16:51;;;;;;;19.27;14.80;;;13.70;99.90;;;;;;5073070;28;20220;-45
2022/04/28 08:19:16;;;;;;;22.58;15.30;;;13.80;99.90;;;;;;5073433;28;20166;-44
2022/04/28 08:21:42;;;;;;;19.55;15.18;;;13.90;99.90;;;;;;5073036;28;20170;-44
2022/04/28 08:24:07;;;;;;;24.40;15.20;;;14.10;99.90;;;;;;5073153;28;20172;-44
2022/04/28 08:26:33;;;;;;;25.33;15.40;;;14.20;99.90;;;;;;5072974;28;20239;-44
2022/04/28 08:28:58;;;;;;;22.90;15.52;;;14.10;99.90;;;;;;5073015;28;20174;-44
2022/04/28 08:31:24;;;;;;;21.70;16.23;;;14.20;99.90;;;;;;5073208;28;20245;-44
2022/04/28 08:33:49;;;;;;;21.10;15.75;;;14.40;99.90;;;;;;5072860;28;20173;-44
2022/04/28 08:36:15;;;;;;;22.45;15.65;;;14.40;99.90;;;;;;5072985;28;20669;-44
2022/04/28 08:38:41;;;;;;;22.27;16.17;;;14.60;99.90;;;;;;5073028;28;20182;-46
2022/04/28 08:41:11;;;;;;;23.92;15.98;;;14.80;99.90;;;;;;5072845;28;20181;-44
2022/04/28 08:43:37;;;;;;;18.92;13.77;;;14.80;99.90;;;;;;5072706;28;20170;-45
2022/04/28 08:48:55;;;;;;;19.85;14.57;;;14.60;99.90;;;;;;5073048;28;20265;-44
2022/04/28 08:51:25;;;;;;;19.73;15.27;;;14.80;99.90;;;;;;5072563;28;20169;-44
2022/04/28 08:53:51;;;;;;;21.48;15.07;;;14.80;99.90;;;;;;5072391;28;20173;-44
2022/04/28 08:56:19;;;;;;;22.83;15.73;;;14.80;99.90;;;;;;5072635;28;20288;-47
2022/04/28 08:58:45;;;;;;;23.35;14.98;;;15.10;99.90;;;;;;5072602;28;20521;-44
2022/04/28 09:01:11;;;;;;;17.35;14.60;;;15.30;99.90;;;;;;5072456;28;20188;-46
2022/04/28 09:03:36;;;;;;;17.50;14.07;;;15.30;99.90;;;;;;5071954;28;20682;-45
2022/04/28 09:06:23;;;;;;;21.75;14.13;;;15.40;99.90;;;;;;5072453;28;20173;-44
2022/04/28 09:08:49;;;;;;;18.65;13.23;;;15.50;99.90;;;;;;5072205;28;20164;-46
2022/04/28 09:11:20;;;;;;;21.73;14.68;;;15.20;99.90;;;;;;5070498;28;20176;-44
2022/04/28 09:14:11;;;;;;;21.85;14.35;;;15.30;99.90;;;;;;5071990;28;20204;-45
2022/04/28 09:16:42;;;;;;;20.73;14.73;;;15.40;99.90;;;;;;5072134;28;20221;-47
2022/04/28 09:19:09;;;;;;;19.80;12.77;;;15.50;99.90;;;;;;5071962;28;20166;-48
2022/04/28 09:21:35;;;;;;;19.88;13.45;;;15.70;99.90;;;;;;5071893;28;20666;-47
2022/04/28 09:24:02;;;;;;;16.02;12.57;;;15.70;99.90;;;;;;5072136;28;20192;-51
2022/04/28 09:26:29;;;;;;;17.30;13.15;;;16.00;99.90;;;;;;5070792;28;20700;-49
2022/04/28 09:28:55;;;;;;;16.67;12.70;;;16.20;99.90;;;;;;5070644;28;20207;-45
2022/04/28 09:31:23;;;;;;;18.63;12.32;;;16.10;99.90;;;;;;5071778;28;20170;-50
2022/04/28 09:33:49;;;;;;;17.30;13.05;;;16.00;99.90;;;;;;5071909;28;20174;-45
2022/04/28 09:36:15;;;;;;;18.02;14.65;;;16.10;99.90;;;;;;5071448;28;20193;-45
2022/04/28 09:38:40;;;;;;;15.18;12.27;;;16.30;99.90;;;;;;5071485;28;20646;-45
2022/04/28 09:43:57;;;;;;;17.55;12.75;;;16.30;99.90;;;;;;5070396;28;20265;-53
2022/04/28 09:46:25;;;;;;;20.05;12.85;;;16.50;99.90;;;;;;5071443;28;20166;-52
2022/04/28 09:48:53;;;;;;;16.00;11.27;;;16.60;99.90;;;;;;5071329;28;20631;-53
2022/04/28 09:51:23;;;;;;;14.02;11.77;;;16.70;99.90;;;;;;5071125;28;20166;-47
2022/04/28 09:53:51;;;;;;;20.80;11.93;;;16.50;99.90;;;;;;5071413;28;20162;-53
2022/04/28 09:56:20;;;;;;;19.40;12.40;;;16.50;99.90;;;;;;5071568;28;20661;-50
2022/04/28 09:58:46;;;;;;;15.35;11.82;;;16.70;99.90;;;;;;5071288;28;20203;-47
2022/04/28 10:01:13;;;;;;;17.40;12.15;;;16.80;99.90;;;;;;5071081;28;20209;-50
2022/04/28 10:03:40;;;;;;;13.70;11.70;;;16.80;99.90;;;;;;5070957;28;20216;-50
2022/04/28 10:06:07;;;;;;;17.77;12.70;;;16.80;99.90;;;;;;5071356;28;20166;-47
2022/04/28 10:08:34;;;;;;;15.10;12.75;;;17.00;99.90;;;;;;5071120;28;20189;-50
2022/04/28 10:11:01;;;;;;;24.38;13.63;;;17.10;99.90;;;;;;5071351;28;20197;-47
2022/04/28 10:13:28;;;;;;;18.67;13.02;;;17.20;99.90;;;;;;5070873;28;20170;-44
2022/04/28 10:16:22;;;;;;;15.90;11.90;;;17.20;99.90;;;;;;5071273;28;20166;-47
2022/04/28 10:19:01;;;;;;;15.63;10.45;;;17.30;99.90;;;;;;5070668;28;20386;-50
2022/04/28 10:21:43;;;;;;;19.65;12.60;;;17.20;99.90;;;;;;5071043;28;20289;-44
2022/04/28 10:33:01;;;;;;;15.90;11.65;;;17.40;99.90;;;;;;5070831;28;20195;-45
2022/04/28 10:35:44;;;;;;;15.30;10.40;;;17.40;99.90;;;;;;5070755;28;20170;-44
2022/04/28 10:38:11;;;;;;;14.43;11.35;;;17.60;99.90;;;;;;5070391;28;20404;-45
2022/04/28 10:40:43;;;;;;;16.30;12.15;;;17.70;99.90;;;;;;5070573;28;20158;-44
2022/04/28 10:43:19;;;;;;;15.90;12.30;;;17.80;99.90;;;;;;5070471;28;20170;-44
2022/04/28 10:45:46;;;;;;;19.27;11.15;;;17.90;99.90;;;;;;5071024;28;20219;-44
2022/04/28 10:48:24;;;;;;;13.55;11.32;;;18.00;99.90;;;;;;5070593;28;20603;-46
2022/04/28 10:51:06;;;;;;;16.70;12.90;;;17.80;99.90;;;;;;5070584;28;20162;-43
2022/04/28 10:53:33;;;;;;;17.40;13.07;;;18.20;99.90;;;;;;5070765;28;20268;-45
2022/04/28 10:56:11;;;;;;;16.65;12.95;;;18.10;99.90;;;;;;5070492;28;20199;-43
2022/04/28 10:58:37;;;;;;;16.60;12.07;;;18.00;99.90;;;;;;5070744;28;20186;-44
2022/04/28 11:01:04;;;;;;;15.48;11.55;;;18.20;99.90;;;;;;5070751;28;20169;-45
2022/04/28 11:03:48;;;;;;;14.88;12.07;;;18.00;99.90;;;;;;5070141;28;20221;-46
2022/04/28 11:06:18;;;;;;;14.00;10.88;;;17.80;99.90;;;;;;5070634;28;20231;-43
2022/04/28 11:08:45;;;;;;;17.73;11.95;;;17.90;99.90;;;;;;5070378;28;20295;-45
2022/04/28 11:11:12;;;;;;;16.75;12.10;;;18.00;99.90;;;;;;5070579;28;20165;-44
2022/04/28 11:13:40;;;;;;;18.95;11.98;;;18.00;99.90;;;;;;5070624;28;20173;-46
2022/04/28 11:16:08;;;;;;;16.30;11.82;;;18.30;99.90;;;;;;5070552;28;20259;-45
2022/04/28 11:18:34;;;;;;;14.13;11.40;;;18.20;99.90;;;;;;5086227;28;20185;-45
2022/04/28 11:21:01;;;;;;;14.32;11.30;;;18.30;99.90;;;;;;5070481;28;20239;-43
2022/04/28 11:23:35;;;;;;;15.88;10.57;;;18.10;99.10;;;;;;5070423;28;20173;-44
2022/04/28 11:26:02;;;;;;;17.25;11.40;;;18.10;99.90;;;;;;5070077;28;20651;-46
2022/04/28 11:28:31;;;;;;;14.13;11.73;;;18.10;99.90;;;;;;5070532;28;20178;-44
2022/04/28 11:30:58;;;;;;;13.93;10.77;;;18.20;99.40;;;;;;5070413;28;20257;-44
2022/04/28 11:33:24;;;;;;;12.65;11.35;;;18.30;99.10;;;;;;5070607;28;20188;-46
2022/04/28 11:35:50;;;;;;;13.40;10.93;;;17.90;98.30;;;;;;5070196;28;20670;-44
2022/04/28 11:38:24;;;;;;;17.58;12.13;;;18.20;99.60;;;;;;5069202;28;20548;-45
2022/04/28 11:41:03;;;;;;;16.20;12.20;;;18.00;97.80;;;;;;5070098;28;20166;-50
2022/04/28 11:43:34;;;;;;;16.42;11.73;;;18.40;98.90;;;;;;5070119;28;20169;-45
2022/04/28 11:46:00;;;;;;;18.67;12.13;;;18.40;98.30;;;;;;5070315;28;20219;-45
2022/04/28 11:48:29;;;;;;;12.95;11.02;;;18.50;98.50;;;;;;5070474;28;20216;-44
2022/04/28 11:51:02;;;;;;;13.90;10.90;;;18.60;98.80;;;;;;5072679;28;20689;-46
2022/04/28 11:53:39;;;;;;;15.10;10.98;;;18.60;97.30;;;;;;5073971;28;20261;-46
2022/04/28 11:56:29;;;;;;;15.57;12.50;;;18.50;98.00;;;;;;5073571;28;20696;-44
2022/04/28 11:58:55;;;;;;;17.70;12.63;;;18.50;95.40;;;;;;5073961;28;20185;-45
2022/04/28 12:01:21;;;;;;;15.00;11.75;;;18.60;98.50;;;;;;5073402;28;20247;-46
2022/04/28 12:03:55;;;;;;;15.82;11.55;;;18.70;97.70;;;;;;5073751;28;20197;-48
2022/04/28 12:06:23;;;;;;;19.42;12.07;;;18.70;96.10;;;;;;5073450;28;20645;-46
2022/04/28 12:14:37;;;;;;;16.27;12.60;;;18.80;96.10;;;;;;5073351;28;20252;-45
2022/04/28 12:19:59;;;;;;;14.07;10.38;;;18.90;97.40;;;;;;5073459;28;20177;-44
2022/04/28 12:22:30;;;;;;;16.92;10.40;;;19.00;96.50;;;;;;5073605;28;20514;-45
2022/04/28 12:25:02;;;;;;;14.57;10.63;;;19.00;98.00;;;;;;5073376;28;20166;-45
2022/04/28 12:27:57;;;;;;;14.63;11.02;;;19.00;95.40;;;;;;5073230;28;20184;-45
2022/04/28 12:30:23;;;;;;;11.65;10.43;;;19.20;95.50;;;;;;5073260;28;20173;-45
2022/04/28 12:32:51;;;;;;;16.40;10.45;;;19.30;95.90;;;;;;5072950;28;20248;-44
2022/04/28 12:35:26;;;;;;;13.18;9.77;;;19.30;95.40;;;;;;5073239;28;20170;-44
2022/04/28 12:37:57;;;;;;;12.85;10.82;;;19.40;95.70;;;;;;5073102;28;20201;-46
2022/04/28 12:40:24;;;;;;;15.65;10.63;;;19.40;94.70;;;;;;5073071;28;20253;-45
2022/04/28 12:42:50;;;;;;;15.63;10.80;;;19.40;94.70;;;;;;5072724;28;20256;-45
2022/04/28 12:45:40;;;;;;;12.32;9.88;;;19.20;93.70;;;;;;5072913;28;20257;-44
2022/04/28 12:48:08;;;;;;;12.32;10.93;;;19.30;94.50;;;;;;5072986;28;20249;-45
2022/04/28 12:50:33;;;;;;;15.52;10.98;;;19.40;93.60;;;;;;5072873;28;20173;-45
2022/04/28 12:53:02;;;;;;;16.20;10.60;;;19.30;94.40;;;;;;5072471;28;20185;-44
2022/04/28 12:55:36;;;;;;;16.95;11.52;;;19.30;94.90;;;;;;5072736;28;20256;-45
2022/04/28 12:58:02;;;;;;;12.90;8.73;;;19.40;93.70;;;;;;5072437;28;20229;-47
2022/04/28 13:00:37;;;;;;;13.10;10.00;;;19.50;93.00;;;;;;5072339;28;20674;-52
2022/04/28 13:03:05;;;;;;;15.55;9.85;;;19.50;93.20;;;;;;5072346;28;20702;-51
2022/04/28 13:05:31;;;;;;;13.70;10.90;;;19.20;93.40;;;;;;5072669;28;20224;-44
2022/04/28 13:07:56;;;;;;;14.40;9.35;;;19.60;93.80;;;;;;5072701;28;20166;-44
2022/04/28 13:10:24;;;;;;;10.85;9.73;;;19.60;92.50;;;;;;5072493;28;20182;-44
2022/04/28 13:12:50;;;;;;;15.52;11.02;;;19.30;91.50;;;;;;5072087;28;20169;-44
2022/04/28 13:15:16;;;;;;;12.27;9.88;;;19.50;92.70;;;;;;5072229;28;20170;-44